Terminal Aerodrome Forecast
Issued by NWS

Home | Current Version | Previous Version | Text Only | Print | Product List | Glossary On
Versions: 1 2 3 4 5 6 7 8 9 10 11 12 13 14 15
137
FTUS43 KJKL 031838 AAA
TAFSME
TAF AMD
KSME 031838Z 0319/0418 05003KT P6SM SCT030
     FM040500 00000KT P6SM SCT025 OVC070
     FM040900 VRB03KT P6SM VCSH OVC030
     FM041300 VRB03KT P6SM VCSH BKN010 OVC025=

USA.gov is the U.S. government's official web portal to all federal, state and local government web resources and services.